sensor_id;sensor_type;location;lat;lon;timestamp;P1;durP1;ratioP1;P2;durP2;ratioP2
45792;SDS011;31495;42.740;22.908;2024-01-15T00:00:18;67.13;;;27.52;;
45792;SDS011;31495;42.740;22.908;2024-01-15T00:01:18;58.97;;;27.08;;
45792;SDS011;31495;42.740;22.908;2024-01-15T00:02:18;73.20;;;30.35;;
45792;SDS011;31495;42.740;22.908;2024-01-15T00:03:18;88.20;;;36.20;;
45792;SDS011;31495;42.740;22.908;2024-01-15T00:04:18;111.95;;;46.75;;
45792;SDS011;31495;42.740;22.908;2024-01-15T00:05:18;117.30;;;46.83;;
45792;SDS011;31495;42.740;22.908;2024-01-15T00:06:18;110.30;;;48.83;;
45792;SDS011;31495;42.740;22.908;2024-01-15T00:07:18;120.78;;;50.10;;
45792;SDS011;31495;42.740;22.908;2024-01-15T00:08:18;124.85;;;52.35;;
45792;SDS011;31495;42.740;22.908;2024-01-15T00:09:17;120.55;;;50.78;;
45792;SDS011;31495;42.740;22.908;2024-01-15T00:10:19;116.93;;;50.60;;
45792;SDS011;31495;42.740;22.908;2024-01-15T00:11:19;96.03;;;41.97;;
45792;SDS011;31495;42.740;22.908;2024-01-15T00:12:19;94.35;;;39.47;;
45792;SDS011;31495;42.740;22.908;2024-01-15T00:13:19;81.60;;;38.25;;
45792;SDS011;31495;42.740;22.908;2024-01-15T00:14:19;78.32;;;33.63;;
45792;SDS011;31495;42.740;22.908;2024-01-15T00:15:19;88.20;;;38.50;;
45792;SDS011;31495;42.740;22.908;2024-01-15T00:16:19;109.75;;;42.83;;
45792;SDS011;31495;42.740;22.908;2024-01-15T00:17:19;88.50;;;39.33;;
45792;SDS011;31495;42.740;22.908;2024-01-15T00:18:19;105.03;;;40.83;;
45792;SDS011;31495;42.740;22.908;2024-01-15T00:19:19;68.03;;;29.88;;
45792;SDS011;31495;42.740;22.908;2024-01-15T00:20:19;79.20;;;34.33;;
45792;SDS011;31495;42.740;22.908;2024-01-15T00:21:19;57.70;;;27.08;;
45792;SDS011;31495;42.740;22.908;2024-01-15T00:22:19;52.33;;;23.55;;
45792;SDS011;31495;42.740;22.908;2024-01-15T00:23:20;53.67;;;24.02;;
45792;SDS011;31495;42.740;22.908;2024-01-15T00:24:20;53.75;;;22.23;;
45792;SDS011;31495;42.740;22.908;2024-01-15T00:25:20;44.00;;;19.90;;
45792;SDS011;31495;42.740;22.908;2024-01-15T00:26:20;48.17;;;21.70;;
45792;SDS011;31495;42.740;22.908;2024-01-15T00:27:20;50.88;;;24.65;;
45792;SDS011;31495;42.740;22.908;2024-01-15T00:28:20;54.15;;;24.17;;
45792;SDS011;31495;42.740;22.908;2024-01-15T00:29:20;51.92;;;19.05;;
45792;SDS011;31495;42.740;22.908;2024-01-15T00:30:20;41.55;;;17.67;;
45792;SDS011;31495;42.740;22.908;2024-01-15T00:31:20;42.47;;;19.20;;
45792;SDS011;31495;42.740;22.908;2024-01-15T00:32:20;40.95;;;18.75;;
45792;SDS011;31495;42.740;22.908;2024-01-15T00:33:20;44.72;;;18.50;;
45792;SDS011;31495;42.740;22.908;2024-01-15T00:34:20;38.22;;;17.70;;
45792;SDS011;31495;42.740;22.908;2024-01-15T00:35:21;44.22;;;18.67;;
45792;SDS011;31495;42.740;22.908;2024-01-15T00:36:21;39.92;;;17.75;;
45792;SDS011;31495;42.740;22.908;2024-01-15T00:37:21;42.70;;;17.70;;
45792;SDS011;31495;42.740;22.908;2024-01-15T00:38:21;38.97;;;17.05;;
45792;SDS011;31495;42.740;22.908;2024-01-15T00:39:21;40.63;;;15.80;;
45792;SDS011;31495;42.740;22.908;2024-01-15T00:40:21;49.90;;;16.70;;
45792;SDS011;31495;42.740;22.908;2024-01-15T00:41:21;35.30;;;15.63;;
45792;SDS011;31495;42.740;22.908;2024-01-15T00:42:21;36.38;;;16.27;;
45792;SDS011;31495;42.740;22.908;2024-01-15T00:43:21;40.88;;;16.30;;
45792;SDS011;31495;42.740;22.908;2024-01-15T00:44:21;43.08;;;17.40;;
45792;SDS011;31495;42.740;22.908;2024-01-15T00:45:21;52.83;;;22.95;;
45792;SDS011;31495;42.740;22.908;2024-01-15T00:46:21;52.85;;;22.70;;
45792;SDS011;31495;42.740;22.908;2024-01-15T00:47:22;49.10;;;22.23;;
45792;SDS011;31495;42.740;22.908;2024-01-15T00:48:22;47.45;;;22.05;;
45792;SDS011;31495;42.740;22.908;2024-01-15T00:49:22;54.88;;;23.98;;
45792;SDS011;31495;42.740;22.908;2024-01-15T00:50:22;43.45;;;20.23;;
45792;SDS011;31495;42.740;22.908;2024-01-15T00:51:22;46.10;;;21.13;;
45792;SDS011;31495;42.740;22.908;2024-01-15T00:52:22;43.63;;;19.90;;
45792;SDS011;31495;42.740;22.908;2024-01-15T00:53:22;41.50;;;21.08;;
45792;SDS011;31495;42.740;22.908;2024-01-15T00:54:22;43.20;;;18.15;;
45792;SDS011;31495;42.740;22.908;2024-01-15T00:55:22;39.35;;;16.95;;
45792;SDS011;31495;42.740;22.908;2024-01-15T00:56:22;37.45;;;16.77;;
45792;SDS011;31495;42.740;22.908;2024-01-15T00:57:22;50.72;;;20.17;;
45792;SDS011;31495;42.740;22.908;2024-01-15T00:58:22;42.28;;;17.90;;
45792;SDS011;31495;42.740;22.908;2024-01-15T00:59:23;38.92;;;17.33;;
45792;SDS011;31495;42.740;22.908;2024-01-15T01:00:23;40.05;;;18.42;;
45792;SDS011;31495;42.740;22.908;2024-01-15T01:01:23;45.50;;;19.23;;
45792;SDS011;31495;42.740;22.908;2024-01-15T01:02:23;43.40;;;18.70;;
45792;SDS011;31495;42.740;22.908;2024-01-15T01:03:23;37.38;;;18.08;;
45792;SDS011;31495;42.740;22.908;2024-01-15T01:04:23;49.63;;;20.05;;
45792;SDS011;31495;42.740;22.908;2024-01-15T01:05:23;50.35;;;21.40;;
45792;SDS011;31495;42.740;22.908;2024-01-15T01:06:23;49.22;;;22.90;;
45792;SDS011;31495;42.740;22.908;2024-01-15T01:07:23;48.88;;;21.63;;
45792;SDS011;31495;42.740;22.908;2024-01-15T01:08:23;47.22;;;21.42;;
45792;SDS011;31495;42.740;22.908;2024-01-15T01:09:23;41.17;;;21.33;;
45792;SDS011;31495;42.740;22.908;2024-01-15T01:10:23;47.10;;;24.70;;
45792;SDS011;31495;42.740;22.908;2024-01-15T01:11:24;46.33;;;22.38;;
45792;SDS011;31495;42.740;22.908;2024-01-15T01:12:24;61.40;;;25.95;;
45792;SDS011;31495;42.740;22.908;2024-01-15T01:13:24;44.67;;;22.15;;
45792;SDS011;31495;42.740;22.908;2024-01-15T01:14:24;50.28;;;23.58;;
45792;SDS011;31495;42.740;22.908;2024-01-15T01:15:24;54.92;;;25.23;;
45792;SDS011;31495;42.740;22.908;2024-01-15T01:16:24;54.88;;;24.75;;
45792;SDS011;31495;42.740;22.908;2024-01-15T01:17:24;52.42;;;24.52;;
45792;SDS011;31495;42.740;22.908;2024-01-15T01:18:24;49.97;;;24.05;;
45792;SDS011;31495;42.740;22.908;2024-01-15T01:19:24;48.90;;;22.40;;
45792;SDS011;31495;42.740;22.908;2024-01-15T01:20:24;50.88;;;24.30;;
45792;SDS011;31495;42.740;22.908;2024-01-15T01:21:24;48.97;;;23.52;;
45792;SDS011;31495;42.740;22.908;2024-01-15T01:22:25;53.50;;;23.40;;
45792;SDS011;31495;42.740;22.908;2024-01-15T01:23:25;57.45;;;24.88;;
45792;SDS011;31495;42.740;22.908;2024-01-15T01:24:25;60.67;;;26.27;;
45792;SDS011;31495;42.740;22.908;2024-01-15T01:25:25;52.78;;;23.20;;
45792;SDS011;31495;42.740;22.908;2024-01-15T01:26:25;57.08;;;26.20;;
45792;SDS011;31495;42.740;22.908;2024-01-15T01:27:25;73.13;;;32.58;;
45792;SDS011;31495;42.740;22.908;2024-01-15T01:28:25;60.30;;;25.92;;
45792;SDS011;31495;42.740;22.908;2024-01-15T01:29:25;58.63;;;25.38;;
45792;SDS011;31495;42.740;22.908;2024-01-15T01:30:25;55.70;;;23.83;;
45792;SDS011;31495;42.740;22.908;2024-01-15T01:31:25;53.58;;;24.17;;
45792;SDS011;31495;42.740;22.908;2024-01-15T01:32:25;60.00;;;24.55;;
45792;SDS011;31495;42.740;22.908;2024-01-15T01:33:25;54.35;;;22.80;;
45792;SDS011;31495;42.740;22.908;2024-01-15T01:34:26;50.03;;;23.98;;
45792;SDS011;31495;42.740;22.908;2024-01-15T01:35:26;52.55;;;22.90;;
45792;SDS011;31495;42.740;22.908;2024-01-15T01:36:26;67.45;;;27.13;;
45792;SDS011;31495;42.740;22.908;2024-01-15T01:37:26;53.80;;;25.30;;
45792;SDS011;31495;42.740;22.908;2024-01-15T01:38:26;74.82;;;30.48;;
45792;SDS011;31495;42.740;22.908;2024-01-15T01:39:26;68.47;;;27.83;;
45792;SDS011;31495;42.740;22.908;2024-01-15T01:40:26;63.85;;;27.52;;
45792;SDS011;31495;42.740;22.908;2024-01-15T01:41:26;72.18;;;28.98;;
45792;SDS011;31495;42.740;22.908;2024-01-15T01:42:26;54.28;;;25.80;;
45792;SDS011;31495;42.740;22.908;2024-01-15T01:43:26;50.40;;;25.58;;
45792;SDS011;31495;42.740;22.908;2024-01-15T01:44:26;53.42;;;22.85;;
45792;SDS011;31495;42.740;22.908;2024-01-15T01:45:27;50.00;;;21.67;;
45792;SDS011;31495;42.740;22.908;2024-01-15T01:46:27;44.45;;;20.92;;
45792;SDS011;31495;42.740;22.908;2024-01-15T01:47:27;46.00;;;20.13;;
45792;SDS011;31495;42.740;22.908;2024-01-15T01:48:27;45.60;;;21.63;;
45792;SDS011;31495;42.740;22.908;2024-01-15T01:49:27;44.17;;;20.67;;
45792;SDS011;31495;42.740;22.908;2024-01-15T01:50:28;53.35;;;22.45;;
45792;SDS011;31495;42.740;22.908;2024-01-15T01:51:31;48.88;;;21.95;;
45792;SDS011;31495;42.740;22.908;2024-01-15T01:52:32;48.63;;;21.95;;
45792;SDS011;31495;42.740;22.908;2024-01-15T01:53:33;57.03;;;25.52;;
45792;SDS011;31495;42.740;22.908;2024-01-15T01:55:34;54.63;;;21.48;;
45792;SDS011;31495;42.740;22.908;2024-01-15T01:56:35;49.42;;;21.10;;
45792;SDS011;31495;42.740;22.908;2024-01-15T01:57:35;47.33;;;23.15;;
45792;SDS011;31495;42.740;22.908;2024-01-15T01:58:35;58.05;;;24.17;;
45792;SDS011;31495;42.740;22.908;2024-01-15T01:59:35;52.22;;;23.27;;
45792;SDS011;31495;42.740;22.908;2024-01-15T02:00:35;53.78;;;25.00;;
45792;SDS011;31495;42.740;22.908;2024-01-15T02:01:35;49.50;;;23.25;;
45792;SDS011;31495;42.740;22.908;2024-01-15T02:02:35;50.20;;;23.23;;
45792;SDS011;31495;42.740;22.908;2024-01-15T02:03:34;60.17;;;23.83;;
45792;SDS011;31495;42.740;22.908;2024-01-15T02:04:34;61.50;;;20.85;;
45792;SDS011;31495;42.740;22.908;2024-01-15T02:05:35;40.30;;;20.58;;
45792;SDS011;31495;42.740;22.908;2024-01-15T02:06:36;45.45;;;22.15;;
45792;SDS011;31495;42.740;22.908;2024-01-15T02:07:35;45.80;;;20.85;;
45792;SDS011;31495;42.740;22.908;2024-01-15T02:08:36;47.10;;;21.77;;
45792;SDS011;31495;42.740;22.908;2024-01-15T02:09:35;51.47;;;22.55;;
45792;SDS011;31495;42.740;22.908;2024-01-15T02:10:35;55.55;;;22.67;;
45792;SDS011;31495;42.740;22.908;2024-01-15T02:11:36;52.72;;;25.42;;
45792;SDS011;31495;42.740;22.908;2024-01-15T02:12:36;54.30;;;24.08;;
45792;SDS011;31495;42.740;22.908;2024-01-15T02:13:36;50.10;;;25.23;;
45792;SDS011;31495;42.740;22.908;2024-01-15T02:14:35;59.08;;;25.48;;
45792;SDS011;31495;42.740;22.908;2024-01-15T02:15:34;53.88;;;23.48;;
45792;SDS011;31495;42.740;22.908;2024-01-15T02:16:34;53.78;;;24.00;;
45792;SDS011;31495;42.740;22.908;2024-01-15T02:17:34;52.90;;;24.83;;
45792;SDS011;31495;42.740;22.908;2024-01-15T02:18:40;51.55;;;22.67;;
45792;SDS011;31495;42.740;22.908;2024-01-15T02:19:40;54.78;;;23.25;;
45792;SDS011;31495;42.740;22.908;2024-01-15T02:20:40;49.65;;;22.88;;
45792;SDS011;31495;42.740;22.908;2024-01-15T02:21:39;47.80;;;22.85;;
45792;SDS011;31495;42.740;22.908;2024-01-15T02:22:39;50.42;;;23.33;;
45792;SDS011;31495;42.740;22.908;2024-01-15T02:23:38;51.75;;;23.70;;
45792;SDS011;31495;42.740;22.908;2024-01-15T02:24:38;41.65;;;21.08;;
45792;SDS011;31495;42.740;22.908;2024-01-15T02:25:39;47.33;;;23.17;;
45792;SDS011;31495;42.740;22.908;2024-01-15T02:26:39;52.17;;;22.63;;
45792;SDS011;31495;42.740;22.908;2024-01-15T02:27:39;46.80;;;22.40;;
45792;SDS011;31495;42.740;22.908;2024-01-15T02:28:39;46.85;;;23.20;;
45792;SDS011;31495;42.740;22.908;2024-01-15T02:29:40;47.45;;;22.00;;
45792;SDS011;31495;42.740;22.908;2024-01-15T02:30:40;52.08;;;22.48;;
45792;SDS011;31495;42.740;22.908;2024-01-15T02:31:41;50.33;;;23.05;;
45792;SDS011;31495;42.740;22.908;2024-01-15T02:32:40;46.42;;;21.38;;
45792;SDS011;31495;42.740;22.908;2024-01-15T02:33:40;49.70;;;23.50;;
45792;SDS011;31495;42.740;22.908;2024-01-15T02:34:41;49.08;;;23.58;;
45792;SDS011;31495;42.740;22.908;2024-01-15T02:35:41;48.70;;;23.20;;
45792;SDS011;31495;42.740;22.908;2024-01-15T02:36:40;45.45;;;23.95;;
45792;SDS011;31495;42.740;22.908;2024-01-15T02:37:39;49.90;;;23.05;;
45792;SDS011;31495;42.740;22.908;2024-01-15T02:38:39;46.15;;;22.80;;
45792;SDS011;31495;42.740;22.908;2024-01-15T02:39:38;57.65;;;25.60;;
45792;SDS011;31495;42.740;22.908;2024-01-15T02:40:38;55.38;;;24.48;;
45792;SDS011;31495;42.740;22.908;2024-01-15T02:41:38;58.53;;;25.85;;
45792;SDS011;31495;42.740;22.908;2024-01-15T02:42:37;60.20;;;25.33;;
45792;SDS011;31495;42.740;22.908;2024-01-15T02:43:37;55.67;;;25.90;;
45792;SDS011;31495;42.740;22.908;2024-01-15T02:44:37;61.35;;;27.92;;
45792;SDS011;31495;42.740;22.908;2024-01-15T02:45:36;64.70;;;29.25;;
45792;SDS011;31495;42.740;22.908;2024-01-15T02:46:36;57.58;;;27.63;;
45792;SDS011;31495;42.740;22.908;2024-01-15T02:47:35;52.90;;;25.92;;
45792;SDS011;31495;42.740;22.908;2024-01-15T02:48:34;55.55;;;24.35;;
45792;SDS011;31495;42.740;22.908;2024-01-15T02:49:34;52.70;;;23.58;;
45792;SDS011;31495;42.740;22.908;2024-01-15T02:50:33;54.05;;;24.08;;
45792;SDS011;31495;42.740;22.908;2024-01-15T02:51:33;49.72;;;22.83;;
45792;SDS011;31495;42.740;22.908;2024-01-15T02:52:33;53.33;;;23.65;;
45792;SDS011;31495;42.740;22.908;2024-01-15T02:53:33;55.08;;;25.10;;
45792;SDS011;31495;42.740;22.908;2024-01-15T02:54:32;53.28;;;24.15;;
45792;SDS011;31495;42.740;22.908;2024-01-15T02:55:33;55.72;;;24.27;;
45792;SDS011;31495;42.740;22.908;2024-01-15T02:56:32;50.13;;;23.90;;
45792;SDS011;31495;42.740;22.908;2024-01-15T02:57:33;51.33;;;24.38;;
45792;SDS011;31495;42.740;22.908;2024-01-15T02:58:33;60.08;;;23.30;;
45792;SDS011;31495;42.740;22.908;2024-01-15T02:59:33;61.83;;;26.67;;
45792;SDS011;31495;42.740;22.908;2024-01-15T03:00:33;47.85;;;24.75;;
45792;SDS011;31495;42.740;22.908;2024-01-15T03:01:33;54.03;;;24.23;;
45792;SDS011;31495;42.740;22.908;2024-01-15T03:02:36;59.22;;;24.60;;
45792;SDS011;31495;42.740;22.908;2024-01-15T03:03:39;57.25;;;24.80;;
45792;SDS011;31495;42.740;22.908;2024-01-15T03:04:43;56.72;;;27.50;;
45792;SDS011;31495;42.740;22.908;2024-01-15T03:05:43;63.30;;;29.92;;
45792;SDS011;31495;42.740;22.908;2024-01-15T03:06:42;69.53;;;31.00;;
45792;SDS011;31495;42.740;22.908;2024-01-15T03:07:42;59.42;;;27.10;;
45792;SDS011;31495;42.740;22.908;2024-01-15T03:08:42;61.10;;;28.10;;
45792;SDS011;31495;42.740;22.908;2024-01-15T03:09:41;56.22;;;26.13;;
45792;SDS011;31495;42.740;22.908;2024-01-15T03:10:41;43.72;;;24.00;;
45792;SDS011;31495;42.740;22.908;2024-01-15T03:11:41;47.67;;;22.35;;
45792;SDS011;31495;42.740;22.908;2024-01-15T03:12:40;44.85;;;20.52;;
45792;SDS011;31495;42.740;22.908;2024-01-15T03:13:39;53.92;;;21.17;;
45792;SDS011;31495;42.740;22.908;2024-01-15T03:14:39;52.72;;;23.73;;
45792;SDS011;31495;42.740;22.908;2024-01-15T03:15:39;45.80;;;20.80;;
45792;SDS011;31495;42.740;22.908;2024-01-15T03:16:38;41.97;;;19.35;;
45792;SDS011;31495;42.740;22.908;2024-01-15T03:17:38;55.03;;;25.17;;
45792;SDS011;31495;42.740;22.908;2024-01-15T03:18:37;72.68;;;31.80;;
45792;SDS011;31495;42.740;22.908;2024-01-15T03:19:36;85.03;;;37.65;;
45792;SDS011;31495;42.740;22.908;2024-01-15T03:20:36;96.35;;;40.78;;
45792;SDS011;31495;42.740;22.908;2024-01-15T03:21:35;101.63;;;38.72;;
45792;SDS011;31495;42.740;22.908;2024-01-15T03:22:35;117.10;;;41.28;;
45792;SDS011;31495;42.740;22.908;2024-01-15T03:23:35;124.90;;;43.00;;
45792;SDS011;31495;42.740;22.908;2024-01-15T03:24:35;123.40;;;41.90;;
45792;SDS011;31495;42.740;22.908;2024-01-15T03:26:35;128.45;;;47.10;;
45792;SDS011;31495;42.740;22.908;2024-01-15T03:27:35;119.97;;;46.28;;
45792;SDS011;31495;42.740;22.908;2024-01-15T03:28:35;113.38;;;40.03;;
45792;SDS011;31495;42.740;22.908;2024-01-15T03:29:35;85.63;;;36.22;;
45792;SDS011;31495;42.740;22.908;2024-01-15T03:30:35;82.43;;;32.67;;
45792;SDS011;31495;42.740;22.908;2024-01-15T03:31:36;84.07;;;32.45;;
45792;SDS011;31495;42.740;22.908;2024-01-15T03:32:36;92.05;;;35.45;;
45792;SDS011;31495;42.740;22.908;2024-01-15T03:33:36;108.40;;;36.58;;
45792;SDS011;31495;42.740;22.908;2024-01-15T03:34:36;77.70;;;31.63;;
45792;SDS011;31495;42.740;22.908;2024-01-15T03:35:36;74.78;;;31.17;;
45792;SDS011;31495;42.740;22.908;2024-01-15T03:36:36;81.00;;;32.85;;
45792;SDS011;31495;42.740;22.908;2024-01-15T03:37:36;101.93;;;37.58;;
45792;SDS011;31495;42.740;22.908;2024-01-15T03:38:39;100.10;;;37.67;;
45792;SDS011;31495;42.740;22.908;2024-01-15T03:39:40;74.25;;;30.77;;
45792;SDS011;31495;42.740;22.908;2024-01-15T03:40:40;99.03;;;39.80;;
45792;SDS011;31495;42.740;22.908;2024-01-15T03:41:39;126.03;;;47.72;;
45792;SDS011;31495;42.740;22.908;2024-01-15T03:42:39;127.05;;;49.30;;
45792;SDS011;31495;42.740;22.908;2024-01-15T03:43:38;111.25;;;48.20;;
45792;SDS011;31495;42.740;22.908;2024-01-15T03:44:39;111.57;;;43.22;;
45792;SDS011;31495;42.740;22.908;2024-01-15T03:45:38;97.95;;;42.45;;
45792;SDS011;31495;42.740;22.908;2024-01-15T03:46:38;94.68;;;39.85;;
45792;SDS011;31495;42.740;22.908;2024-01-15T03:47:37;80.20;;;34.67;;
45792;SDS011;31495;42.740;22.908;2024-01-15T03:48:37;65.80;;;32.97;;
45792;SDS011;31495;42.740;22.908;2024-01-15T03:49:37;72.95;;;34.03;;
45792;SDS011;31495;42.740;22.908;2024-01-15T03:50:37;75.88;;;34.60;;
45792;SDS011;31495;42.740;22.908;2024-01-15T03:51:37;80.20;;;37.25;;
45792;SDS011;31495;42.740;22.908;2024-01-15T03:52:37;84.38;;;38.85;;
45792;SDS011;31495;42.740;22.908;2024-01-15T03:53:38;101.37;;;41.97;;
45792;SDS011;31495;42.740;22.908;2024-01-15T03:54:38;95.05;;;42.30;;
45792;SDS011;31495;42.740;22.908;2024-01-15T03:55:38;98.18;;;42.38;;
45792;SDS011;31495;42.740;22.908;2024-01-15T03:56:38;70.45;;;33.72;;
45792;SDS011;31495;42.740;22.908;2024-01-15T03:57:38;63.85;;;30.88;;
45792;SDS011;31495;42.740;22.908;2024-01-15T03:58:38;60.88;;;27.58;;
45792;SDS011;31495;42.740;22.908;2024-01-15T03:59:40;46.28;;;20.65;;
45792;SDS011;31495;42.740;22.908;2024-01-15T04:00:40;41.03;;;20.63;;
45792;SDS011;31495;42.740;22.908;2024-01-15T04:01:47;39.22;;;20.20;;
45792;SDS011;31495;42.740;22.908;2024-01-15T04:02:47;43.13;;;19.92;;
45792;SDS011;31495;42.740;22.908;2024-01-15T04:03:47;41.55;;;18.90;;
45792;SDS011;31495;42.740;22.908;2024-01-15T04:04:46;40.80;;;20.10;;
45792;SDS011;31495;42.740;22.908;2024-01-15T04:05:46;42.08;;;19.90;;
45792;SDS011;31495;42.740;22.908;2024-01-15T04:06:45;51.90;;;22.90;;
45792;SDS011;31495;42.740;22.908;2024-01-15T04:07:45;39.53;;;18.25;;
45792;SDS011;31495;42.740;22.908;2024-01-15T04:08:44;37.53;;;19.20;;
45792;SDS011;31495;42.740;22.908;2024-01-15T04:09:44;37.08;;;17.73;;
45792;SDS011;31495;42.740;22.908;2024-01-15T04:10:43;37.97;;;17.25;;
45792;SDS011;31495;42.740;22.908;2024-01-15T04:11:43;43.70;;;19.67;;
45792;SDS011;31495;42.740;22.908;2024-01-15T04:12:42;40.63;;;18.33;;
45792;SDS011;31495;42.740;22.908;2024-01-15T04:13:42;41.67;;;19.95;;
45792;SDS011;31495;42.740;22.908;2024-01-15T04:14:42;47.60;;;18.17;;
45792;SDS011;31495;42.740;22.908;2024-01-15T04:15:41;40.97;;;18.35;;
45792;SDS011;31495;42.740;22.908;2024-01-15T04:16:40;34.00;;;17.30;;
45792;SDS011;31495;42.740;22.908;2024-01-15T04:17:40;36.90;;;15.88;;
45792;SDS011;31495;42.740;22.908;2024-01-15T04:18:40;39.70;;;16.40;;
45792;SDS011;31495;42.740;22.908;2024-01-15T04:19:40;46.20;;;23.58;;
45792;SDS011;31495;42.740;22.908;2024-01-15T04:20:43;48.30;;;23.60;;
45792;SDS011;31495;42.740;22.908;2024-01-15T04:21:43;45.20;;;23.35;;
45792;SDS011;31495;42.740;22.908;2024-01-15T04:22:43;52.33;;;22.88;;
45792;SDS011;31495;42.740;22.908;2024-01-15T04:23:43;44.72;;;22.27;;
45792;SDS011;31495;42.740;22.908;2024-01-15T04:24:43;48.67;;;22.48;;
45792;SDS011;31495;42.740;22.908;2024-01-15T04:25:43;49.63;;;22.08;;
45792;SDS011;31495;42.740;22.908;2024-01-15T04:26:42;46.38;;;23.17;;
45792;SDS011;31495;42.740;22.908;2024-01-15T04:27:42;55.42;;;24.60;;
45792;SDS011;31495;42.740;22.908;2024-01-15T04:28:41;51.50;;;24.25;;
45792;SDS011;31495;42.740;22.908;2024-01-15T04:29:41;55.17;;;24.52;;
45792;SDS011;31495;42.740;22.908;2024-01-15T04:30:41;52.88;;;23.17;;
45792;SDS011;31495;42.740;22.908;2024-01-15T04:31:41;52.75;;;24.65;;
45792;SDS011;31495;42.740;22.908;2024-01-15T04:32:41;60.70;;;25.58;;
45792;SDS011;31495;42.740;22.908;2024-01-15T04:33:41;55.42;;;25.20;;
45792;SDS011;31495;42.740;22.908;2024-01-15T04:34:41;61.22;;;23.92;;
45792;SDS011;31495;42.740;22.908;2024-01-15T04:35:41;53.70;;;23.42;;
45792;SDS011;31495;42.740;22.908;2024-01-15T04:36:41;55.92;;;22.90;;
45792;SDS011;31495;42.740;22.908;2024-01-15T04:37:41;51.97;;;23.17;;
45792;SDS011;31495;42.740;22.908;2024-01-15T04:38:41;64.53;;;25.65;;
45792;SDS011;31495;42.740;22.908;2024-01-15T04:39:41;47.72;;;24.05;;
45792;SDS011;31495;42.740;22.908;2024-01-15T04:40:42;51.60;;;27.05;;
45792;SDS011;31495;42.740;22.908;2024-01-15T04:41:42;50.42;;;25.13;;
45792;SDS011;31495;42.740;22.908;2024-01-15T04:42:42;54.15;;;27.90;;
45792;SDS011;31495;42.740;22.908;2024-01-15T04:43:42;58.45;;;26.38;;
45792;SDS011;31495;42.740;22.908;2024-01-15T04:44:42;57.72;;;26.33;;
45792;SDS011;31495;42.740;22.908;2024-01-15T04:45:42;53.95;;;27.70;;
45792;SDS011;31495;42.740;22.908;2024-01-15T04:46:42;57.65;;;27.08;;
45792;SDS011;31495;42.740;22.908;2024-01-15T04:47:42;51.97;;;25.88;;
45792;SDS011;31495;42.740;22.908;2024-01-15T04:48:42;52.70;;;25.75;;
45792;SDS011;31495;42.740;22.908;2024-01-15T04:49:42;57.15;;;24.80;;
45792;SDS011;31495;42.740;22.908;2024-01-15T04:50:42;57.08;;;28.35;;
45792;SDS011;31495;42.740;22.908;2024-01-15T04:51:42;61.30;;;28.10;;
45792;SDS011;31495;42.740;22.908;2024-01-15T04:52:43;62.95;;;27.33;;
45792;SDS011;31495;42.740;22.908;2024-01-15T04:53:43;67.05;;;32.78;;
45792;SDS011;31495;42.740;22.908;2024-01-15T04:54:43;88.78;;;43.05;;
45792;SDS011;31495;42.740;22.908;2024-01-15T04:55:43;83.90;;;45.72;;
45792;SDS011;31495;42.740;22.908;2024-01-15T04:56:43;86.32;;;43.38;;
45792;SDS011;31495;42.740;22.908;2024-01-15T04:57:43;81.65;;;42.33;;
45792;SDS011;31495;42.740;22.908;2024-01-15T04:58:43;90.80;;;45.70;;
45792;SDS011;31495;42.740;22.908;2024-01-15T04:59:43;86.43;;;44.92;;
45792;SDS011;31495;42.740;22.908;2024-01-15T05:00:43;83.57;;;41.80;;
45792;SDS011;31495;42.740;22.908;2024-01-15T05:01:43;80.72;;;40.65;;
45792;SDS011;31495;42.740;22.908;2024-01-15T05:02:43;75.15;;;38.33;;
45792;SDS011;31495;42.740;22.908;2024-01-15T05:03:44;67.72;;;34.97;;
45792;SDS011;31495;42.740;22.908;2024-01-15T05:04:44;62.30;;;31.40;;
45792;SDS011;31495;42.740;22.908;2024-01-15T05:05:44;53.10;;;27.15;;
45792;SDS011;31495;42.740;22.908;2024-01-15T05:06:44;66.03;;;25.92;;
45792;SDS011;31495;42.740;22.908;2024-01-15T05:07:44;45.90;;;23.83;;
45792;SDS011;31495;42.740;22.908;2024-01-15T05:08:44;50.25;;;23.38;;
45792;SDS011;31495;42.740;22.908;2024-01-15T05:09:44;50.33;;;23.85;;
45792;SDS011;31495;42.740;22.908;2024-01-15T05:10:44;54.45;;;25.38;;
45792;SDS011;31495;42.740;22.908;2024-01-15T05:11:44;56.47;;;28.30;;
45792;SDS011;31495;42.740;22.908;2024-01-15T05:12:44;56.28;;;28.13;;
45792;SDS011;31495;42.740;22.908;2024-01-15T05:13:44;59.42;;;28.95;;
45792;SDS011;31495;42.740;22.908;2024-01-15T05:14:45;63.50;;;30.90;;
45792;SDS011;31495;42.740;22.908;2024-01-15T05:15:45;60.88;;;28.63;;
45792;SDS011;31495;42.740;22.908;2024-01-15T05:16:48;64.90;;;29.45;;
45792;SDS011;31495;42.740;22.908;2024-01-15T05:17:48;72.22;;;33.60;;
45792;SDS011;31495;42.740;22.908;2024-01-15T05:18:47;63.85;;;32.80;;
45792;SDS011;31495;42.740;22.908;2024-01-15T05:19:47;69.75;;;33.55;;
45792;SDS011;31495;42.740;22.908;2024-01-15T05:20:46;66.15;;;32.28;;
45792;SDS011;31495;42.740;22.908;2024-01-15T05:21:45;63.90;;;31.70;;
45792;SDS011;31495;42.740;22.908;2024-01-15T05:22:45;77.60;;;35.92;;
45792;SDS011;31495;42.740;22.908;2024-01-15T05:23:45;100.50;;;42.45;;
45792;SDS011;31495;42.740;22.908;2024-01-15T05:24:45;101.15;;;43.47;;
45792;SDS011;31495;42.740;22.908;2024-01-15T05:25:45;94.78;;;42.95;;
45792;SDS011;31495;42.740;22.908;2024-01-15T05:26:45;89.18;;;40.00;;
45792;SDS011;31495;42.740;22.908;2024-01-15T05:27:46;95.25;;;42.42;;
45792;SDS011;31495;42.740;22.908;2024-01-15T05:28:46;94.78;;;39.92;;
45792;SDS011;31495;42.740;22.908;2024-01-15T05:29:46;72.32;;;31.25;;
45792;SDS011;31495;42.740;22.908;2024-01-15T05:30:46;68.13;;;32.83;;
45792;SDS011;31495;42.740;22.908;2024-01-15T05:31:46;70.88;;;33.53;;
45792;SDS011;31495;42.740;22.908;2024-01-15T05:32:46;73.53;;;32.90;;
45792;SDS011;31495;42.740;22.908;2024-01-15T05:33:46;82.78;;;35.08;;
45792;SDS011;31495;42.740;22.908;2024-01-15T05:34:46;86.25;;;40.75;;
45792;SDS011;31495;42.740;22.908;2024-01-15T05:35:46;112.75;;;48.03;;
45792;SDS011;31495;42.740;22.908;2024-01-15T05:36:46;114.05;;;47.85;;
45792;SDS011;31495;42.740;22.908;2024-01-15T05:37:47;97.63;;;41.10;;
45792;SDS011;31495;42.740;22.908;2024-01-15T05:38:47;74.63;;;34.80;;
45792;SDS011;31495;42.740;22.908;2024-01-15T05:39:47;76.75;;;35.97;;
45792;SDS011;31495;42.740;22.908;2024-01-15T05:40:47;64.80;;;28.50;;
45792;SDS011;31495;42.740;22.908;2024-01-15T05:41:47;64.20;;;27.25;;
45792;SDS011;31495;42.740;22.908;2024-01-15T05:42:47;60.95;;;27.27;;
45792;SDS011;31495;42.740;22.908;2024-01-15T05:43:47;68.38;;;30.40;;
45792;SDS011;31495;42.740;22.908;2024-01-15T05:44:47;84.93;;;39.80;;
45792;SDS011;31495;42.740;22.908;2024-01-15T05:45:47;82.93;;;42.70;;
45792;SDS011;31495;42.740;22.908;2024-01-15T05:46:47;79.40;;;39.05;;
45792;SDS011;31495;42.740;22.908;2024-01-15T05:47:47;94.10;;;44.53;;